Ana Sayfa
METAR-TAF:

METAR-TAF

Havaalanları :

Ankara Esenboğa Havalimanı

Ankara Esenboğa, Türkiye

Enlem: 40-07N, Boylam: 032-59E, yükseklik: 953 m

Güncel hava durumu gözlemi

Rapor saat 21:50 UTC de 17 dakika önce yapıldı.
Rüzgar değişken yönden 1 kt
Sıcaklık 12°C
Nem 71%
Basınç 1019 hPa
Görüş mesafesi 10 km veya daha fazla
4000 ft yükseklikte az bulutlu

METAR: LTAC 172150Z VRB01KT 9999 FEW040 12/07 Q1019 NOSIG RMK RWY21L 23003KT 170V280 RWY03L 00000KT RWY21R 23003KT

Saat: 01:07 (22:07 UTC)

Tahmin

Rapor saat 16:40 UTC de 5 saat ve 27 dakika önce yapıldı.
Ayın 17'si saat 18 UTC'den ayın 18'si saat 18 UTC'ye kadar geçerli Tahmin
Rüzgar değişken yönden 2 kt
Görüş mesafesi: 8000 m
3500 ft yükseklikte parçalı bulutlu

TAF: LTAC 171640Z 1718/1818 VRB02KT 8000 SCT035

4.000'den fazla havaalanı için hava durumu gözlemleri ve tahminleri (METAR ve TAF raporları).

Kullanılabilir istasyonlar harita üzerinde sarı ve kırmızı noktalarla gösterilir.

İstasyonun adını görmek için fareyi noktanın üzerinde gezdirin.

Sonrasında hava gözlem ve tahminlerini görmek için tıklayın.

Haritayı değiştirmek için: yaklaştırmak için siyah artı işaretli yeşil düğmeye ve uzaklaştırmak için de eksi işaretli düğmeye hızla tıklayın; bitişik haritalar için yeşil okları kullanın.


METAR-TAF: